Orchid Ace — 7JDE — position and weather

sailwx.info

Track history (hours):
 
Tides and Currents Weather Stations Pressure Air Temp Water Temp Dewpoint Dewpoint Depression Visibility Wind Speed Wind Dir Waves Ship Positions

Orchid Ace

Last reported at 2017-Mar-28 08:32 UTC. Time now 2017-Mar-28 08:38 UTC.
Position N 51°30' E 001°31'.

Length 200 m; draft 7.6 m.

Type: Cargo ship. MMSI: 432651000.

Date/timePositionNaut miles runAvg speedWind from/ knotsBaromVisibWave heightAir tempDewpointWater temp
2017-Mar-28 08:32N 51°30' E 001°31'3 3.1
2017-Mar-28 07:33N 51°29' E 001°36'1414.3
2017-Mar-28 06:33N 51°27' E 001°59'1515.2
2017-Mar-28 05:34N 51°21' E 002°21'1514.8
2017-Mar-28 04:33N 51°22' E 002°45'1414.1
2017-Mar-28 03:33N 51°24' E 003°07'1515.0
2017-Mar-28 02:33N 51°25' E 003°31'9 9.0
2017-Mar-28 01:33N 51°22' E 003°45'9 9.3
2017-Mar-28 00:33N 51°26' E 003°58'8 7.9
2017-Mar-27 23:33N 51°24' E 004°10'7 7.2
2017-Mar-27 22:33N 51°17' E 004°15'0 0.4
2017-Mar-27 21:33N 51°17' E 004°15'1 0.9
2017-Mar-27 20:33N 51°16' E 004°14'0 0.0
2017-Mar-27 19:33N 51°16' E 004°14'0 0.0
2017-Mar-27 18:33N 51°16' E 004°14'0 0.0
2017-Mar-27 17:33N 51°16' E 004°14'0 0.0
2017-Mar-27 16:33N 51°16' E 004°14'0 0.0
2017-Mar-27 15:30N 51°16' E 004°14'0 0.0
2017-Mar-27 14:33N 51°16' E 004°14'0 0.0
2017-Mar-27 13:33N 51°16' E 004°14'0 0.0
2017-Mar-27 12:33N 51°16' E 004°14'0 0.0
2017-Mar-27 11:33N 51°16' E 004°14'0 0.0
2017-Mar-27 10:33N 51°16' E 004°14'0 0.0
2017-Mar-27 09:33N 51°16' E 004°14'0 0.0
2017-Mar-27 08:33N 51°16' E 004°14'0 0.0
2017-Mar-27 07:33N 51°16' E 004°14'0 0.0
2017-Mar-27 06:33N 51°16' E 004°14'0 0.0
2017-Mar-27 05:33N 51°16' E 004°14'0 0.0
2017-Mar-27 04:33N 51°16' E 004°14'0 0.0
2017-Mar-27 03:33N 51°16' E 004°14'0 0.0
2017-Mar-27 02:30N 51°16' E 004°14'0 0.0
2017-Mar-27 01:30N 51°16' E 004°14'0 0.0
2017-Mar-27 00:24N 51°16' E 004°14'0 0.0
2017-Mar-26 23:33N 51°16' E 004°14'1 0.8
2017-Mar-26 22:33N 51°16' E 004°16'1 0.7
2017-Mar-26 21:34N 51°16' E 004°17'4 3.9
2017-Mar-26 20:33N 51°20' E 004°16'1111.4
2017-Mar-26 19:33N 51°26' E 004°01'1211.6
2017-Mar-26 18:33N 51°24' E 003°43'8 8.1
2017-Mar-26 17:33N 51°25' E 003°30'1211.9
2017-Mar-26 16:33N 51°24' E 003°11'1312.8
2017-Mar-26 15:33N 51°22' E 002°51'7 7.4
2017-Mar-26 14:33N 51°22' E 002°39'5 5.5
2017-Mar-26 13:33N 51°22' E 002°30'10 9.7
2017-Mar-26 12:33N 51°17' E 002°17'1111.2
2017-Mar-26 11:33N 51°12' E 002°01'1312.7
2017-Mar-26 10:33N 51°05' E 001°44'1414.3
2017-Mar-26 09:34N 50°54' E 001°29'1514.3
2017-Mar-26 08:31N 50°40' E 001°20'1915.3
2017-Mar-26 07:16N 50°29' E 000°55'1819.1
2017-Mar-26 06:19N 50°24' E 000°28'1215.1
2017-Mar-26 05:33N 50°20' E 000°11'1313.4
2017-Mar-26 04:33N 50°18' W 000°10'1312.7
2017-Mar-26 03:33N 50°19' W 000°29'1211.7
2017-Mar-26 02:33N 50°19' W 000°48'1110.6
2017-Mar-26 01:31N 50°20' W 001°05'1010.1
2017-Mar-26 00:33N 50°21' W 001°20'1010.3
2017-Mar-25 23:33N 50°21' W 001°36'2711.7
2017-Mar-25 21:12N 50°23' W 002°19'913.5
2017-Mar-25 20:33N 50°23' W 002°33'1414.2
2017-Mar-25 19:33N 50°24' W 002°55'1414.0
2017-Mar-25 18:34N 50°25' W 003°17'6 5.9
2017-Mar-25 17:33N 50°22' W 003°26'1312.9
2017-Mar-25 16:34N 50°10' W 003°28'1515.1
2017-Mar-25 15:34N 50°05' W 003°50'1414.1
2017-Mar-25 14:33N 50°01' W 004°11'1414.0
2017-Mar-25 13:33N 49°56' W 004°32'1313.5
2017-Mar-25 12:33N 49°53' W 004°52'1313.3
2017-Mar-25 11:33N 49°49' W 005°12'1412.9
2017-Mar-25 10:30N 49°46' W 005°33'1212.9
2017-Mar-25 09:33N 49°42' W 005°50'1212.5
2017-Mar-25 08:33N 49°38' W 006°09'1312.8
2017-Mar-25 07:33N 49°38' W 006°29'1312.7
2017-Mar-25 06:33N 49°39' W 006°48'15 4.6
2017-Mar-25 03:13N 49°38' W 007°12'811.4
2017-Mar-25 02:33N 49°34' W 007°22'34713.1
2017-Mar-24 00:00N 47°48' W 015°42'15412.8 010 / 261027.710.8 10.0 3.111.0
2017-Mar-23 12:00N 47°00' W 019°18'7813.0 350 / 231029.110.8 13.0 4.212.0
2017-Mar-23 06:00N 46°36' W 021°06'8213.7 340 / 201029.810.8 10.0 3.112.0
2017-Mar-23 00:00N 46°12' W 023°00'8313.8 340 / 151033.210.8 8.0 3.313.0
2017-Mar-22 18:00N 45°48' W 024°54'8614.4 360 / 91032.810.8 11.0 4.312.0
2017-Mar-22 12:00N 45°00' W 026°36'9115.1 340 / 51034.010.8 11.0 4.313.0
2017-Mar-22 06:00N 44°12' W 028°24'8213.6 360 / 41032.310.8 12.0 5.614.0
2017-Mar-22 00:00N 43°36' W 030°06'8013.3 300 / 91033.910.8 14.0 8.015.0
2017-Mar-21 18:00N 43°06' W 031°48'8714.5 260 / 71031.810.8 18.0 8.315.0
2017-Mar-21 12:00N 42°30' W 033°36'9215.3 260 / 91031.910.8 15.0 9.214.0
2017-Mar-21 06:00N 41°54' W 035°30'8614.3 180 / 151030.710.8 13.0 4.215.0
2017-Mar-21 00:00N 41°24' W 037°18'18315.2 160 / 141032.210.8 13.0 6.815.0
2017-Mar-20 12:00N 40°12' W 041°00'17614.6 090 / 81031.710.8 15.0 6.916.0
2017-Mar-20 00:00N 38°54' W 044°24'9415.7 060 / 271028.410.8 12.0 5.618.0
2017-Mar-19 18:00N 38°12' W 046°12'9916.6 050 / 121025.210.8 18.010.619.0
2017-Mar-19 12:00N 37°30' W 048°06'10016.7 270 / 81025.810.8 18.010.619.0
2017-Mar-19 06:00N 37°00' W 050°06'10517.5 300 / 71024.410.8 19.0 9.618.0
2017-Mar-19 00:00N 36°18' W 052°06'9916.5 320 / 191025.710.8 20.010.919.0
2017-Mar-18 18:00N 35°42' W 054°00'10016.6 310 / 211023.210.8 25.013.019.0
2017-Mar-18 12:00N 35°06' W 055°54'   300 / 171025.310.8 18.010.618.0
Track history (hours):
 
Tides and Currents Weather Stations Pressure Air Temp Water Temp Dewpoint Dewpoint Depression Visibility Wind Speed Wind Dir Waves Ship Positions

Orchid Ace

Last reported at 2017-Mar-28 08:32 UTC. Time now 2017-Mar-28 08:38 UTC.
Position N 51°30' E 001°31'.

Length 200 m; draft 7.6 m.

Type: Cargo ship. MMSI: 432651000.

Date/timePositionNaut miles runAvg speedWind from/ knotsBaromVisibWave heightAir tempDewpointWater temp
2017-Mar-28 08:32N 51°30' E 001°31'3 3.1
2017-Mar-28 07:33N 51°29' E 001°36'1414.3
2017-Mar-28 06:33N 51°27' E 001°59'1515.2
2017-Mar-28 05:34N 51°21' E 002°21'1514.8
2017-Mar-28 04:33N 51°22' E 002°45'1414.1
2017-Mar-28 03:33N 51°24' E 003°07'1515.0
2017-Mar-28 02:33N 51°25' E 003°31'9 9.0
2017-Mar-28 01:33N 51°22' E 003°45'9 9.3
2017-Mar-28 00:33N 51°26' E 003°58'8 7.9
2017-Mar-27 23:33N 51°24' E 004°10'7 7.2
2017-Mar-27 22:33N 51°17' E 004°15'0 0.4
2017-Mar-27 21:33N 51°17' E 004°15'1 0.9
2017-Mar-27 20:33N 51°16' E 004°14'0 0.0
2017-Mar-27 19:33N 51°16' E 004°14'0 0.0
2017-Mar-27 18:33N 51°16' E 004°14'0 0.0
2017-Mar-27 17:33N 51°16' E 004°14'0 0.0
2017-Mar-27 16:33N 51°16' E 004°14'0 0.0
2017-Mar-27 15:30N 51°16' E 004°14'0 0.0
2017-Mar-27 14:33N 51°16' E 004°14'0 0.0
2017-Mar-27 13:33N 51°16' E 004°14'0 0.0
2017-Mar-27 12:33N 51°16' E 004°14'0 0.0
2017-Mar-27 11:33N 51°16' E 004°14'0 0.0
2017-Mar-27 10:33N 51°16' E 004°14'0 0.0
2017-Mar-27 09:33N 51°16' E 004°14'0 0.0
2017-Mar-27 08:33N 51°16' E 004°14'0 0.0
2017-Mar-27 07:33N 51°16' E 004°14'0 0.0
2017-Mar-27 06:33N 51°16' E 004°14'0 0.0
2017-Mar-27 05:33N 51°16' E 004°14'0 0.0
2017-Mar-27 04:33N 51°16' E 004°14'0 0.0
2017-Mar-27 03:33N 51°16' E 004°14'0 0.0
2017-Mar-27 02:30N 51°16' E 004°14'0 0.0
2017-Mar-27 01:30N 51°16' E 004°14'0 0.0
2017-Mar-27 00:24N 51°16' E 004°14'0 0.0
2017-Mar-26 23:33N 51°16' E 004°14'1 0.8
2017-Mar-26 22:33N 51°16' E 004°16'1 0.7
2017-Mar-26 21:34N 51°16' E 004°17'4 3.9
2017-Mar-26 20:33N 51°20' E 004°16'1111.4
2017-Mar-26 19:33N 51°26' E 004°01'1211.6
2017-Mar-26 18:33N 51°24' E 003°43'8 8.1
2017-Mar-26 17:33N 51°25' E 003°30'1211.9
2017-Mar-26 16:33N 51°24' E 003°11'1312.8
2017-Mar-26 15:33N 51°22' E 002°51'7 7.4
2017-Mar-26 14:33N 51°22' E 002°39'5 5.5
2017-Mar-26 13:33N 51°22' E 002°30'10 9.7
2017-Mar-26 12:33N 51°17' E 002°17'1111.2
2017-Mar-26 11:33N 51°12' E 002°01'1312.7
2017-Mar-26 10:33N 51°05' E 001°44'1414.3
2017-Mar-26 09:34N 50°54' E 001°29'1514.3
2017-Mar-26 08:31N 50°40' E 001°20'1915.3
2017-Mar-26 07:16N 50°29' E 000°55'1819.1
2017-Mar-26 06:19N 50°24' E 000°28'1215.1
2017-Mar-26 05:33N 50°20' E 000°11'1313.4
2017-Mar-26 04:33N 50°18' W 000°10'1312.7
2017-Mar-26 03:33N 50°19' W 000°29'1211.7
2017-Mar-26 02:33N 50°19' W 000°48'1110.6
2017-Mar-26 01:31N 50°20' W 001°05'1010.1
2017-Mar-26 00:33N 50°21' W 001°20'1010.3
2017-Mar-25 23:33N 50°21' W 001°36'2711.7
2017-Mar-25 21:12N 50°23' W 002°19'913.5
2017-Mar-25 20:33N 50°23' W 002°33'1414.2
2017-Mar-25 19:33N 50°24' W 002°55'1414.0
2017-Mar-25 18:34N 50°25' W 003°17'6 5.9
2017-Mar-25 17:33N 50°22' W 003°26'1312.9
2017-Mar-25 16:34N 50°10' W 003°28'1515.1
2017-Mar-25 15:34N 50°05' W 003°50'1414.1
2017-Mar-25 14:33N 50°01' W 004°11'1414.0
2017-Mar-25 13:33N 49°56' W 004°32'1313.5
2017-Mar-25 12:33N 49°53' W 004°52'1313.3
2017-Mar-25 11:33N 49°49' W 005°12'1412.9
2017-Mar-25 10:30N 49°46' W 005°33'1212.9
2017-Mar-25 09:33N 49°42' W 005°50'1212.5
2017-Mar-25 08:33N 49°38' W 006°09'1312.8
2017-Mar-25 07:33N 49°38' W 006°29'1312.7
2017-Mar-25 06:33N 49°39' W 006°48'15 4.6
2017-Mar-25 03:13N 49°38' W 007°12'811.4
2017-Mar-25 02:33N 49°34' W 007°22'34713.1
2017-Mar-24 00:00N 47°48' W 015°42'15412.8 010 / 261027.710.8 10.0 3.111.0
2017-Mar-23 12:00N 47°00' W 019°18'7813.0 350 / 231029.110.8 13.0 4.212.0
2017-Mar-23 06:00N 46°36' W 021°06'8213.7 340 / 201029.810.8 10.0 3.112.0
2017-Mar-23 00:00N 46°12' W 023°00'8313.8 340 / 151033.210.8 8.0 3.313.0
2017-Mar-22 18:00N 45°48' W 024°54'8614.4 360 / 91032.810.8 11.0 4.312.0
2017-Mar-22 12:00N 45°00' W 026°36'9115.1 340 / 51034.010.8 11.0 4.313.0
2017-Mar-22 06:00N 44°12' W 028°24'8213.6 360 / 41032.310.8 12.0 5.614.0
2017-Mar-22 00:00N 43°36' W 030°06'8013.3 300 / 91033.910.8 14.0 8.015.0
2017-Mar-21 18:00N 43°06' W 031°48'8714.5 260 / 71031.810.8 18.0 8.315.0
2017-Mar-21 12:00N 42°30' W 033°36'9215.3 260 / 91031.910.8 15.0 9.214.0
2017-Mar-21 06:00N 41°54' W 035°30'8614.3 180 / 151030.710.8 13.0 4.215.0
2017-Mar-21 00:00N 41°24' W 037°18'18315.2 160 / 141032.210.8 13.0 6.815.0
2017-Mar-20 12:00N 40°12' W 041°00'17614.6 090 / 81031.710.8 15.0 6.916.0
2017-Mar-20 00:00N 38°54' W 044°24'9415.7 060 / 271028.410.8 12.0 5.618.0
2017-Mar-19 18:00N 38°12' W 046°12'9916.6 050 / 121025.210.8 18.010.619.0
2017-Mar-19 12:00N 37°30' W 048°06'10016.7 270 / 81025.810.8 18.010.619.0
2017-Mar-19 06:00N 37°00' W 050°06'10517.5 300 / 71024.410.8 19.0 9.618.0
2017-Mar-19 00:00N 36°18' W 052°06'9916.5 320 / 191025.710.8 20.010.919.0
2017-Mar-18 18:00N 35°42' W 054°00'10016.6 310 / 211023.210.8 25.013.019.0
2017-Mar-18 12:00N 35°06' W 055°54'   300 / 171025.310.8 18.010.618.0

Dump ship's entire track history